createdAt,value
2022-10-18T00:01:42.688Z,17.68
2022-10-18T00:04:10.683Z,17.68
2022-10-18T00:06:41.206Z,17.65
2022-10-18T00:09:11.700Z,17.68
2022-10-18T00:11:41.486Z,17.53
2022-10-18T00:14:09.837Z,17.55
2022-10-18T00:16:37.778Z,17.58
2022-10-18T00:19:05.740Z,17.56
2022-10-18T00:21:33.768Z,17.59
2022-10-18T00:24:01.701Z,17.49
2022-10-18T00:26:32.415Z,17.47
2022-10-18T00:29:05.223Z,17.35
2022-10-18T00:31:35.004Z,17.47
2022-10-18T00:34:05.004Z,17.51
2022-10-18T00:36:35.215Z,17.41
2022-10-18T00:39:04.195Z,17.50
2022-10-18T00:41:34.464Z,17.47
2022-10-18T00:44:05.987Z,17.42
2022-10-18T00:46:35.498Z,17.29
2022-10-18T00:49:06.405Z,17.44
2022-10-18T00:51:39.479Z,17.39
2022-10-18T00:54:07.528Z,17.41
2022-10-18T00:56:35.926Z,17.39
2022-10-18T00:59:05.441Z,17.38
2022-10-18T01:01:33.370Z,17.37
2022-10-18T01:04:01.900Z,17.37
2022-10-18T01:06:30.727Z,17.38
2022-10-18T01:09:10.956Z,17.41
2022-10-18T01:11:55.609Z,17.41
2022-10-18T01:14:36.558Z,17.41
2022-10-18T01:17:13.151Z,17.37
2022-10-18T01:20:08.597Z,17.37
2022-10-18T01:22:40.492Z,17.28
2022-10-18T01:25:21.798Z,17.34
2022-10-18T01:27:57.680Z,17.37
2022-10-18T01:30:39.072Z,17.36
2022-10-18T01:33:16.773Z,17.31
2022-10-18T01:35:50.035Z,17.33
2022-10-18T01:38:19.721Z,17.30
2022-10-18T01:40:51.434Z,17.28
2022-10-18T01:43:22.614Z,17.24
2022-10-18T01:45:55.546Z,17.18
2022-10-18T01:48:23.882Z,17.14
2022-10-18T01:50:53.221Z,16.97
2022-10-18T01:53:31.341Z,17.06
2022-10-18T01:56:38.652Z,17.03
2022-10-18T01:59:23.408Z,16.99
2022-10-18T02:02:02.535Z,16.95
2022-10-18T02:04:35.720Z,16.96
2022-10-18T02:07:08.461Z,16.98
2022-10-18T02:09:42.531Z,16.97
2022-10-18T02:12:14.598Z,17.00
2022-10-18T02:14:44.610Z,16.99
2022-10-18T02:17:16.193Z,16.96
2022-10-18T02:19:47.331Z,16.92
2022-10-18T02:22:17.406Z,16.92
2022-10-18T02:24:49.514Z,16.82
2022-10-18T02:27:17.732Z,16.82
2022-10-18T02:29:46.562Z,16.86
2022-10-18T02:32:21.034Z,16.84
2022-10-18T02:34:54.935Z,16.86
2022-10-18T02:37:23.659Z,16.83
2022-10-18T02:39:52.752Z,16.76
2022-10-18T02:42:20.640Z,16.79
2022-10-18T02:44:48.530Z,16.75
2022-10-18T02:47:17.784Z,16.70
2022-10-18T02:49:45.664Z,16.73
2022-10-18T02:52:13.549Z,16.79
2022-10-18T02:54:41.457Z,16.78
2022-10-18T02:57:09.532Z,16.76
2022-10-18T02:59:37.522Z,16.75
2022-10-18T03:02:05.504Z,16.74
2022-10-18T03:04:35.852Z,16.68
2022-10-18T03:07:03.953Z,16.71
2022-10-18T03:09:31.849Z,16.72
2022-10-18T03:11:59.824Z,16.68
2022-10-18T03:14:27.679Z,16.66
2022-10-18T03:16:55.753Z,16.66
2022-10-18T03:19:23.826Z,16.62
2022-10-18T03:21:53.062Z,16.63
2022-10-18T03:24:21.019Z,16.67
2022-10-18T03:26:48.900Z,16.63
2022-10-18T03:29:16.831Z,16.60
2022-10-18T03:31:44.749Z,16.60
2022-10-18T03:34:12.696Z,16.63
2022-10-18T03:36:41.363Z,16.59
2022-10-18T03:39:12.206Z,16.56
2022-10-18T03:41:40.183Z,16.54
2022-10-18T03:44:08.277Z,16.48
2022-10-18T03:46:36.198Z,16.53
2022-10-18T03:49:04.642Z,16.55
2022-10-18T03:51:32.592Z,16.65
2022-10-18T03:54:00.507Z,16.50
2022-10-18T03:56:29.748Z,16.46
2022-10-18T03:58:58.076Z,16.45
2022-10-18T04:01:26.012Z,16.44
2022-10-18T04:03:53.958Z,16.41
2022-10-18T04:06:21.871Z,16.35
2022-10-18T04:08:49.974Z,16.41
2022-10-18T04:11:17.847Z,16.44
2022-10-18T04:13:47.196Z,16.51
2022-10-18T04:16:15.085Z,16.40
2022-10-18T04:18:44.060Z,16.36
2022-10-18T04:21:11.993Z,16.35
2022-10-18T04:23:39.914Z,16.32
2022-10-18T04:26:07.863Z,16.28
2022-10-18T04:28:39.889Z,16.29
2022-10-18T04:31:10.038Z,16.26
2022-10-18T04:33:38.046Z,16.26
2022-10-18T04:36:06.282Z,16.24
2022-10-18T04:38:34.381Z,16.21
2022-10-18T04:41:02.234Z,16.25
2022-10-18T04:43:30.449Z,16.21
2022-10-18T04:45:58.483Z,16.30
2022-10-18T04:48:27.883Z,16.25
2022-10-18T04:50:55.857Z,16.21
2022-10-18T04:53:23.783Z,16.25
2022-10-18T04:55:52.327Z,16.24
2022-10-18T04:58:20.789Z,16.23
2022-10-18T05:00:48.829Z,16.22
2022-10-18T05:03:17.005Z,16.31
2022-10-18T05:06:02.734Z,16.28
2022-10-18T05:08:31.611Z,16.27
2022-10-18T05:10:59.894Z,16.26
2022-10-18T05:13:28.163Z,16.23
2022-10-18T05:15:56.233Z,16.17
2022-10-18T05:18:24.210Z,16.17
2022-10-18T05:20:53.525Z,16.17
2022-10-18T05:23:21.448Z,16.08
2022-10-18T05:25:49.532Z,16.10
2022-10-18T05:31:08.287Z,16.19
2022-10-18T05:33:36.534Z,16.20
2022-10-18T05:36:06.219Z,16.21
2022-10-18T05:38:34.232Z,16.23
2022-10-18T05:41:05.369Z,16.27
2022-10-18T05:43:33.303Z,16.24
2022-10-18T05:46:01.364Z,16.24
2022-10-18T05:48:29.271Z,16.20
2022-10-18T05:50:59.138Z,16.16
2022-10-18T05:53:36.688Z,16.21
2022-10-18T05:56:06.109Z,16.21
2022-10-18T05:58:34.081Z,16.13
2022-10-18T06:01:02.626Z,16.15
2022-10-18T06:03:31.332Z,16.24
2022-10-18T06:06:02.163Z,16.20
2022-10-18T06:08:31.665Z,16.20
2022-10-18T06:11:00.118Z,16.25
2022-10-18T06:13:30.075Z,16.22
2022-10-18T06:16:00.444Z,16.22
2022-10-18T06:18:29.709Z,16.21
2022-10-18T06:20:59.065Z,16.27
2022-10-18T06:23:27.202Z,16.28
2022-10-18T06:25:59.786Z,16.24
2022-10-18T06:28:28.392Z,16.28
2022-10-18T06:30:56.433Z,16.27
2022-10-18T06:33:24.578Z,16.30
2022-10-18T06:35:57.327Z,16.29
2022-10-18T06:38:25.422Z,16.37
2022-10-18T06:40:53.990Z,16.36
2022-10-18T06:43:23.672Z,16.36
2022-10-18T06:45:52.152Z,16.37
2022-10-18T06:48:21.051Z,16.36
2022-10-18T06:50:53.897Z,16.34
2022-10-18T06:53:21.855Z,16.33
2022-10-18T06:55:49.852Z,16.34
2022-10-18T06:58:17.997Z,16.27
2022-10-18T07:00:47.579Z,16.37
2022-10-18T07:03:15.498Z,16.40
2022-10-18T07:05:49.883Z,16.29
2022-10-18T07:08:21.374Z,16.43
2022-10-18T07:10:53.844Z,16.34
2022-10-18T07:13:37.823Z,16.33
2022-10-18T07:16:11.563Z,16.42
2022-10-18T07:18:43.511Z,16.46
2022-10-18T07:21:14.155Z,16.37
2022-10-18T07:23:43.499Z,16.46
2022-10-18T07:26:15.318Z,16.53
2022-10-18T07:28:44.180Z,16.49
2022-10-18T07:31:14.209Z,16.53
2022-10-18T07:33:42.936Z,16.63
2022-10-18T07:36:13.089Z,16.60
2022-10-18T07:38:41.536Z,16.57
2022-10-18T07:41:12.207Z,16.62
2022-10-18T07:43:43.120Z,16.74
2022-10-18T07:46:11.111Z,16.79
2022-10-18T07:48:40.612Z,16.87
2022-10-18T07:51:08.889Z,16.96
2022-10-18T07:53:37.144Z,17.03
2022-10-18T07:56:09.736Z,17.09
2022-10-18T07:58:38.577Z,17.21
2022-10-18T08:01:08.308Z,17.33
2022-10-18T08:03:36.828Z,17.48
2022-10-18T08:06:09.034Z,17.68
2022-10-18T08:08:38.250Z,17.81
2022-10-18T08:11:08.679Z,18.09
2022-10-18T08:13:37.189Z,18.31
2022-10-18T08:16:07.629Z,18.40
2022-10-18T08:18:36.138Z,18.40
2022-10-18T08:21:07.566Z,18.50
2022-10-18T08:23:36.283Z,18.72
2022-10-18T08:26:05.455Z,19.08
2022-10-18T08:28:33.835Z,19.30
2022-10-18T08:31:04.754Z,19.41
2022-10-18T08:33:33.309Z,18.99
2022-10-18T08:36:05.708Z,18.66
2022-10-18T08:38:37.303Z,18.31
2022-10-18T08:41:40.951Z,18.19
2022-10-18T08:44:15.909Z,18.11
2022-10-18T08:46:48.033Z,18.01
2022-10-18T08:49:28.363Z,17.98
2022-10-18T08:51:57.709Z,17.87
2022-10-18T08:54:33.030Z,17.79
2022-10-18T08:57:02.685Z,17.69
2022-10-18T08:59:38.908Z,17.65
2022-10-18T09:02:18.183Z,17.63
2022-10-18T09:04:50.269Z,17.62
2022-10-18T09:07:34.393Z,17.75
2022-10-18T09:10:09.543Z,17.71
2022-10-18T09:12:57.203Z,17.70
2022-10-18T09:15:32.839Z,17.81
2022-10-18T09:18:14.017Z,17.82
2022-10-18T09:20:51.764Z,17.78
2022-10-18T09:23:21.578Z,17.62
2022-10-18T09:25:57.013Z,17.83
2022-10-18T09:28:37.290Z,17.80
2022-10-18T09:31:09.643Z,17.96
2022-10-18T09:33:47.680Z,18.13
2022-10-18T09:36:20.384Z,18.15
2022-10-18T09:38:51.785Z,18.01
2022-10-18T09:41:25.818Z,18.22
2022-10-18T09:43:59.882Z,18.10
2022-10-18T09:46:32.303Z,18.21
2022-10-18T09:49:04.772Z,18.44
2022-10-18T09:51:37.296Z,18.59
2022-10-18T09:54:16.947Z,18.47
2022-10-18T09:56:51.040Z,18.78
2022-10-18T09:59:33.554Z,18.85
2022-10-18T10:02:05.844Z,18.72
2022-10-18T10:04:34.132Z,18.79
2022-10-18T10:07:03.345Z,18.79
2022-10-18T10:09:38.319Z,19.18
2022-10-18T10:12:27.151Z,19.26
2022-10-18T10:14:55.091Z,19.38
2022-10-18T10:17:26.070Z,19.73
2022-10-18T10:20:00.443Z,19.42
2022-10-18T10:22:35.972Z,19.25
2022-10-18T10:25:04.514Z,19.04
2022-10-18T10:27:41.033Z,19.33
2022-10-18T10:30:25.406Z,19.68
2022-10-18T10:32:54.972Z,19.87
2022-10-18T10:35:42.233Z,19.92
2022-10-18T10:38:25.088Z,21.05
2022-10-18T10:40:53.405Z,20.81
2022-10-18T10:43:42.249Z,21.42
2022-10-18T10:46:12.446Z,22.71
2022-10-18T10:48:50.499Z,23.14
2022-10-18T10:51:29.759Z,23.32
2022-10-18T10:54:03.641Z,24.08
2022-10-18T10:56:34.215Z,23.68
2022-10-18T10:59:16.776Z,24.42
2022-10-18T11:01:45.215Z,24.61
2022-10-18T11:04:30.357Z,24.37
2022-10-18T11:07:07.835Z,22.25
2022-10-18T11:09:49.528Z,21.78
2022-10-18T11:12:34.590Z,22.63
2022-10-18T11:15:20.174Z,23.18
2022-10-18T11:17:56.556Z,23.75
2022-10-18T11:20:30.404Z,24.73
2022-10-18T11:23:01.739Z,27.13
2022-10-18T11:25:47.696Z,28.75
2022-10-18T11:28:24.835Z,29.05
2022-10-18T11:31:11.568Z,29.13
2022-10-18T11:34:08.156Z,30.10
2022-10-18T11:36:56.470Z,31.08
2022-10-18T11:39:47.691Z,29.86
2022-10-18T11:42:24.811Z,30.14
2022-10-18T11:45:02.827Z,30.64
2022-10-18T11:47:41.919Z,30.10
2022-10-18T11:50:18.991Z,28.19
2022-10-18T11:52:57.630Z,25.44
2022-10-18T11:55:37.788Z,23.67
2022-10-18T11:58:19.278Z,22.93
2022-10-18T12:00:52.336Z,21.81
2022-10-18T12:03:31.461Z,22.46
2022-10-18T12:06:04.820Z,21.60
2022-10-18T12:08:37.236Z,21.44
2022-10-18T12:11:13.715Z,21.69
2022-10-18T12:13:47.567Z,21.93
2022-10-18T12:16:16.543Z,22.03
2022-10-18T12:21:29.881Z,22.43
2022-10-18T12:24:01.119Z,22.23
2022-10-18T12:26:31.031Z,22.81
2022-10-18T12:29:13.580Z,24.26
2022-10-18T12:31:45.443Z,23.50
2022-10-18T12:34:27.059Z,24.72
2022-10-18T12:37:15.166Z,23.20
2022-10-18T12:40:08.632Z,22.89
2022-10-18T12:42:41.548Z,22.42
2022-10-18T12:45:24.082Z,21.33
2022-10-18T12:47:52.767Z,21.31
2022-10-18T12:50:31.843Z,21.51
2022-10-18T12:53:07.001Z,21.26
2022-10-18T12:55:37.834Z,20.70
2022-10-18T12:58:23.137Z,20.65
2022-10-18T13:00:56.836Z,20.51
2022-10-18T13:03:40.890Z,20.61
2022-10-18T13:06:10.233Z,20.59
2022-10-18T13:08:42.054Z,20.46
2022-10-18T13:11:30.216Z,20.42
2022-10-18T13:14:44.098Z,20.55
2022-10-18T13:17:31.424Z,20.44
2022-10-18T13:20:25.517Z,20.10
2022-10-18T13:23:11.260Z,20.35
2022-10-18T13:25:56.024Z,20.21
2022-10-18T13:28:31.949Z,19.83
2022-10-18T13:31:10.939Z,19.63
2022-10-18T13:33:41.698Z,19.43
2022-10-18T13:36:24.645Z,19.60
2022-10-18T13:39:07.315Z,19.57
2022-10-18T13:42:10.957Z,19.37
2022-10-18T13:44:40.149Z,19.11
2022-10-18T13:47:15.083Z,19.13
2022-10-18T13:50:00.575Z,19.20
2022-10-18T13:52:44.244Z,19.10
2022-10-18T13:55:34.829Z,19.05
2022-10-18T13:58:13.253Z,18.85
2022-10-18T14:01:03.376Z,19.04
2022-10-18T14:04:00.576Z,19.08
2022-10-18T14:06:34.864Z,18.96
2022-10-18T14:09:19.293Z,18.96
2022-10-18T14:12:02.479Z,18.96
2022-10-18T14:14:36.461Z,18.87
2022-10-18T14:17:12.047Z,18.92
2022-10-18T14:19:47.952Z,18.93
2022-10-18T14:22:21.917Z,18.85
2022-10-18T14:24:53.931Z,18.88
2022-10-18T14:27:24.808Z,18.88
2022-10-18T14:30:10.912Z,18.83
2022-10-18T14:32:38.906Z,18.88
2022-10-18T14:35:32.129Z,18.76
2022-10-18T14:38:01.974Z,18.64
2022-10-18T14:40:33.208Z,18.44
2022-10-18T14:43:12.398Z,18.55
2022-10-18T14:45:40.497Z,18.51
2022-10-18T14:48:14.095Z,18.55
2022-10-18T14:50:43.905Z,18.46
2022-10-18T14:53:16.781Z,18.44
2022-10-18T14:55:44.835Z,18.29
2022-10-18T14:58:17.099Z,18.28
2022-10-18T15:00:48.530Z,18.19
2022-10-18T15:03:18.548Z,18.19
2022-10-18T15:05:54.683Z,18.14
2022-10-18T15:08:24.624Z,18.13
2022-10-18T15:10:53.321Z,18.09
2022-10-18T15:13:23.104Z,18.07
2022-10-18T15:15:51.192Z,18.10
2022-10-18T15:18:22.563Z,18.02
2022-10-18T15:21:21.063Z,17.89
2022-10-18T15:23:49.431Z,17.92
2022-10-18T15:26:25.396Z,17.81
2022-10-18T15:29:00.402Z,17.73
2022-10-18T15:31:34.619Z,17.69
2022-10-18T15:34:10.666Z,17.64
2022-10-18T15:36:39.068Z,17.47
2022-10-18T15:39:09.599Z,17.49
2022-10-18T15:41:42.299Z,17.45
2022-10-18T15:44:22.347Z,17.47
2022-10-18T15:46:52.893Z,17.40
2022-10-18T15:49:51.250Z,17.21
2022-10-18T15:52:39.009Z,17.12
2022-10-18T15:55:56.233Z,16.99
2022-10-18T15:58:27.218Z,16.88
2022-10-18T16:00:59.708Z,16.79
2022-10-18T16:03:28.739Z,16.69
2022-10-18T16:06:00.743Z,16.61
2022-10-18T16:08:30.653Z,16.50
2022-10-18T16:10:59.769Z,16.40
2022-10-18T16:13:27.906Z,16.27
2022-10-18T16:15:57.319Z,16.21
2022-10-18T16:18:26.151Z,16.04
2022-10-18T16:20:54.140Z,15.95
2022-10-18T16:23:24.603Z,15.94
2022-10-18T16:25:53.375Z,15.90
2022-10-18T16:28:23.257Z,15.80
2022-10-18T16:30:55.951Z,15.71
2022-10-18T16:33:26.127Z,15.61
2022-10-18T16:35:54.773Z,15.52
2022-10-18T16:38:32.514Z,15.49
2022-10-18T16:41:04.621Z,15.42
2022-10-18T16:43:33.157Z,15.40
2022-10-18T16:46:01.798Z,15.31
2022-10-18T16:48:31.494Z,15.22
2022-10-18T16:50:59.738Z,15.20
2022-10-18T16:53:28.131Z,15.15
2022-10-18T16:55:58.302Z,15.03
2022-10-18T16:58:27.777Z,14.95
2022-10-18T17:00:56.226Z,14.91
2022-10-18T17:03:24.896Z,14.82
2022-10-18T17:05:56.161Z,14.75
2022-10-18T17:08:26.324Z,14.62
2022-10-18T17:10:56.882Z,14.63
2022-10-18T17:13:25.724Z,14.55
2022-10-18T17:15:54.105Z,14.45
2022-10-18T17:18:26.350Z,14.46
2022-10-18T17:20:56.499Z,14.37
2022-10-18T17:23:24.482Z,14.31
2022-10-18T17:26:05.308Z,14.23
2022-10-18T17:28:35.293Z,14.12
2022-10-18T17:31:03.305Z,14.09
2022-10-18T17:33:31.359Z,14.00
2022-10-18T17:36:01.483Z,13.92
2022-10-18T17:38:29.557Z,13.84
2022-10-18T17:40:57.510Z,13.82
2022-10-18T17:43:25.791Z,13.75
2022-10-18T17:45:56.955Z,13.68
2022-10-18T17:48:25.646Z,13.57
2022-10-18T17:50:53.975Z,13.49
2022-10-18T17:53:28.462Z,13.42
2022-10-18T17:56:02.446Z,13.39
2022-10-18T17:58:32.028Z,13.43
2022-10-18T18:01:09.424Z,13.36
2022-10-18T18:03:37.378Z,13.44
2022-10-18T18:06:19.306Z,13.44
2022-10-18T18:08:51.869Z,13.33
2022-10-18T18:11:19.829Z,13.32
2022-10-18T18:13:48.150Z,13.13
2022-10-18T18:16:18.082Z,13.03
2022-10-18T18:18:47.118Z,13.02
2022-10-18T18:21:15.263Z,12.97
2022-10-18T18:23:43.250Z,12.81
2022-10-18T18:26:12.600Z,12.90
2022-10-18T18:28:40.730Z,12.87
2022-10-18T18:31:10.224Z,12.78
2022-10-18T18:33:38.717Z,12.70
2022-10-18T18:36:07.710Z,12.58
2022-10-18T18:38:38.353Z,12.65
2022-10-18T18:41:08.335Z,12.60
2022-10-18T18:43:39.649Z,12.65
2022-10-18T18:46:08.368Z,12.54
2022-10-18T18:48:37.387Z,12.52
2022-10-18T18:51:06.957Z,12.56
2022-10-18T18:53:35.122Z,12.52
2022-10-18T18:56:04.626Z,12.41
2022-10-18T18:58:32.643Z,12.40
2022-10-18T19:01:07.618Z,12.48
2022-10-18T19:03:35.901Z,12.41
2022-10-18T19:06:05.472Z,12.34
2022-10-18T19:08:36.081Z,12.33
2022-10-18T19:11:08.038Z,12.32
2022-10-18T19:13:37.373Z,12.33
2022-10-18T19:16:19.632Z,12.30
2022-10-18T19:18:55.194Z,12.30
2022-10-18T19:21:23.946Z,12.27
2022-10-18T19:23:52.175Z,12.21
2022-10-18T19:26:27.100Z,12.19
2022-10-18T19:28:55.407Z,12.14
2022-10-18T19:31:24.927Z,12.19
2022-10-18T19:33:59.335Z,12.21
2022-10-18T19:36:28.569Z,12.19
2022-10-18T19:38:56.880Z,12.12
2022-10-18T19:43:54.032Z,12.00
2022-10-18T19:46:22.183Z,12.02
2022-10-18T19:48:54.001Z,12.08
2022-10-18T19:51:25.517Z,12.16
2022-10-18T19:53:57.215Z,12.27
2022-10-18T19:56:26.799Z,12.43
2022-10-18T19:58:55.514Z,12.45
2022-10-18T20:01:23.634Z,12.47
2022-10-18T20:03:53.026Z,12.49
2022-10-18T20:06:21.752Z,12.52
2022-10-18T20:08:50.397Z,12.60
2022-10-18T20:11:20.089Z,12.56
2022-10-18T20:13:48.239Z,12.63
2022-10-18T20:16:18.293Z,12.63
2022-10-18T20:18:46.342Z,12.64
2022-10-18T20:21:17.721Z,12.74
2022-10-18T20:23:46.034Z,12.62
2022-10-18T20:26:21.708Z,12.77
2022-10-18T20:28:56.126Z,12.85
2022-10-18T20:31:25.694Z,12.91
2022-10-18T20:33:58.994Z,12.87
2022-10-18T20:36:29.612Z,12.98
2022-10-18T20:38:58.667Z,12.98
2022-10-18T20:41:28.980Z,13.05
2022-10-18T20:43:58.877Z,13.08
2022-10-18T20:46:28.144Z,13.11
2022-10-18T20:48:56.124Z,13.07
2022-10-18T20:51:24.537Z,13.05
2022-10-18T20:53:54.306Z,13.01
2022-10-18T20:56:25.195Z,13.10
2022-10-18T20:58:55.684Z,13.09
2022-10-18T21:01:25.618Z,13.06
2022-10-18T21:03:55.637Z,13.06
2022-10-18T21:06:25.269Z,13.11
2022-10-18T21:08:55.754Z,13.14
2022-10-18T21:11:24.518Z,13.05
2022-10-18T21:13:52.825Z,12.98
2022-10-18T21:16:20.880Z,12.92
2022-10-18T21:18:49.451Z,12.99
2022-10-18T21:21:19.175Z,12.87
2022-10-18T21:23:47.443Z,12.94
2022-10-18T21:26:18.402Z,12.91
2022-10-18T21:28:46.903Z,12.85
2022-10-18T21:31:17.280Z,12.88
2022-10-18T21:33:46.869Z,12.92
2022-10-18T21:36:15.691Z,12.86
2022-10-18T21:38:45.415Z,12.83
2022-10-18T21:41:14.569Z,12.89
2022-10-18T21:43:45.823Z,12.85
2022-10-18T21:46:15.102Z,12.89
2022-10-18T21:48:45.132Z,12.98
2022-10-18T21:51:14.255Z,12.99
2022-10-18T21:53:44.592Z,12.93
2022-10-18T21:56:15.134Z,12.96
2022-10-18T21:58:44.851Z,13.00
2022-10-18T22:01:16.355Z,12.95
2022-10-18T22:03:45.886Z,13.01
2022-10-18T22:06:16.239Z,12.99
2022-10-18T22:08:45.886Z,13.07
2022-10-18T22:11:14.674Z,13.01
2022-10-18T22:13:44.414Z,13.05
2022-10-18T22:16:14.358Z,13.08
2022-10-18T22:18:42.774Z,13.10
2022-10-18T22:21:12.193Z,13.05
2022-10-18T22:23:42.412Z,13.03
2022-10-18T22:26:13.534Z,13.10
2022-10-18T22:28:43.155Z,13.03
2022-10-18T22:31:17.706Z,12.94
2022-10-18T22:33:45.861Z,12.97
2022-10-18T22:36:19.181Z,12.96
2022-10-18T22:38:47.114Z,12.95
2022-10-18T22:41:15.262Z,12.93
2022-10-18T22:43:43.663Z,12.85
2022-10-18T22:46:13.233Z,12.84
2022-10-18T22:48:43.584Z,12.92
2022-10-18T22:51:12.222Z,12.89
2022-10-18T22:53:41.786Z,12.80
2022-10-18T22:56:12.260Z,12.69
2022-10-18T22:58:40.192Z,12.54
2022-10-18T23:01:09.791Z,12.49
2022-10-18T23:03:38.382Z,12.50
2022-10-18T23:06:19.838Z,12.44
2022-10-18T23:08:48.219Z,12.33
2022-10-18T23:11:16.855Z,12.20
2022-10-18T23:13:44.957Z,12.18
2022-10-18T23:16:13.070Z,12.09
2022-10-18T23:18:41.198Z,11.99
2022-10-18T23:21:14.038Z,11.92
2022-10-18T23:23:43.614Z,11.88
2022-10-18T23:26:13.637Z,11.80
2022-10-18T23:28:43.503Z,11.75
2022-10-18T23:31:13.367Z,11.73
2022-10-18T23:33:42.188Z,11.74
2022-10-18T23:36:11.781Z,11.71
2022-10-18T23:38:41.027Z,11.69
2022-10-18T23:41:11.681Z,11.66
2022-10-18T23:43:39.988Z,11.62
2022-10-18T23:46:08.260Z,11.72
2022-10-18T23:48:36.478Z,11.69
2022-10-18T23:51:05.224Z,11.69
2022-10-18T23:53:34.810Z,11.74
2022-10-18T23:56:04.570Z,11.87
2022-10-18T23:58:34.182Z,11.91
